createdAt,value
2023-03-06T00:04:17.512Z,4.43
2023-03-06T00:09:22.472Z,4.00
2023-03-06T00:14:26.240Z,4.73
2023-03-06T00:19:29.786Z,4.20
2023-03-06T00:24:34.582Z,4.67
2023-03-06T00:29:38.360Z,4.10
2023-03-06T00:34:42.977Z,5.40
2023-03-06T00:39:49.660Z,3.67
2023-03-06T00:44:53.471Z,3.40
2023-03-06T00:49:58.539Z,2.13
2023-03-06T00:55:05.789Z,2.40
2023-03-06T01:00:12.008Z,5.27
2023-03-06T01:05:16.316Z,3.20
2023-03-06T01:10:21.512Z,3.37
2023-03-06T01:15:25.356Z,2.77
2023-03-06T01:20:29.656Z,2.43
2023-03-06T01:25:34.866Z,2.70
2023-03-06T01:30:38.452Z,2.53
2023-03-06T01:35:42.447Z,2.80
2023-03-06T01:40:48.402Z,1.73
2023-03-06T01:46:25.897Z,1.80
2023-03-06T01:51:33.408Z,3.07
2023-03-06T01:56:41.440Z,2.23
2023-03-06T02:01:45.956Z,2.17
2023-03-06T02:06:51.862Z,2.23
2023-03-06T02:11:56.705Z,2.60
2023-03-06T02:17:00.516Z,1.47
2023-03-06T02:22:04.795Z,1.73
2023-03-06T02:27:14.395Z,1.47
2023-03-06T02:32:18.625Z,2.10
2023-03-06T02:37:23.009Z,1.53
2023-03-06T02:42:29.544Z,1.43
2023-03-06T02:47:33.893Z,1.40
2023-03-06T02:52:37.459Z,1.50
2023-03-06T02:57:42.549Z,1.20
2023-03-06T03:02:47.236Z,2.33
2023-03-06T03:07:51.036Z,1.83
2023-03-06T03:12:57.255Z,2.90
2023-03-06T03:18:01.539Z,3.07
2023-03-06T03:23:05.265Z,2.63
2023-03-06T03:28:11.278Z,1.53
2023-03-06T03:33:16.194Z,4.43
2023-03-06T03:38:20.050Z,3.23
2023-03-06T03:43:24.994Z,2.07
2023-03-06T03:48:28.585Z,1.60
2023-03-06T03:53:33.190Z,2.80
2023-03-06T03:58:38.179Z,1.90
2023-03-06T04:03:44.465Z,1.53
2023-03-06T04:08:50.231Z,1.40
2023-03-06T04:13:55.192Z,1.87
2023-03-06T04:18:59.122Z,1.47
2023-03-06T04:24:03.041Z,1.13
2023-03-06T04:29:10.754Z,1.60
2023-03-06T04:34:14.298Z,1.67
2023-03-06T04:39:18.616Z,1.47
2023-03-06T04:44:23.545Z,2.17
2023-03-06T04:49:27.743Z,2.90
2023-03-06T04:54:31.342Z,2.03
2023-03-06T04:59:38.847Z,3.23
2023-03-06T05:04:42.590Z,3.43
2023-03-06T05:09:46.025Z,2.43
2023-03-06T05:14:51.116Z,1.90
2023-03-06T05:19:55.000Z,3.13
2023-03-06T05:24:58.779Z,2.80
2023-03-06T05:30:06.187Z,2.93
2023-03-06T05:35:16.491Z,2.90
2023-03-06T05:40:20.426Z,5.50
2023-03-06T05:45:25.842Z,5.40
2023-03-06T05:50:29.794Z,3.27
2023-03-06T05:55:33.644Z,3.13
2023-03-06T06:00:38.874Z,2.53
2023-03-06T06:05:42.461Z,3.00
2023-03-06T06:10:46.090Z,3.83
2023-03-06T06:15:50.979Z,4.87
2023-03-06T06:20:55.935Z,5.80
2023-03-06T06:26:01.071Z,5.23
2023-03-06T06:31:12.260Z,6.57
2023-03-06T06:36:21.471Z,4.67
2023-03-06T06:41:46.171Z,5.77
2023-03-06T06:47:21.234Z,4.27
2023-03-06T06:52:13.672Z,4.97
2023-03-06T06:57:17.744Z,5.40
2023-03-06T07:02:23.657Z,4.10
2023-03-06T07:07:27.026Z,5.17
2023-03-06T07:12:32.871Z,3.97
2023-03-06T07:17:37.727Z,3.70
2023-03-06T07:22:50.498Z,6.07
2023-03-06T07:27:55.616Z,4.80
2023-03-06T07:33:01.112Z,4.97
2023-03-06T07:38:04.471Z,5.40
2023-03-06T07:43:18.788Z,6.53
2023-03-06T07:48:32.747Z,4.47
2023-03-06T07:53:36.610Z,5.60
2023-03-06T07:58:41.862Z,5.50
2023-03-06T08:03:46.713Z,4.77
2023-03-06T08:08:51.371Z,6.30
2023-03-06T08:13:55.393Z,4.90
2023-03-06T08:19:00.401Z,5.83
2023-03-06T08:24:03.960Z,4.63
2023-03-06T08:29:08.143Z,5.70
2023-03-06T08:34:16.228Z,6.90
2023-03-06T08:39:21.074Z,4.47
2023-03-06T08:44:24.486Z,5.67
2023-03-06T08:49:29.283Z,5.40
2023-03-06T08:54:32.556Z,5.97
2023-03-06T08:59:36.029Z,4.40
2023-03-06T09:04:40.835Z,6.33
2023-03-06T09:09:44.255Z,4.83
2023-03-06T09:14:47.616Z,6.37
2023-03-06T09:19:52.606Z,5.63
2023-03-06T09:24:55.936Z,5.20
2023-03-06T09:29:59.462Z,5.13
2023-03-06T09:35:04.307Z,3.97
2023-03-06T09:40:08.441Z,5.77
2023-03-06T09:45:14.286Z,5.70
2023-03-06T09:50:30.091Z,6.93
2023-03-06T09:55:36.292Z,4.57
2023-03-06T10:00:43.036Z,5.60
2023-03-06T10:05:51.541Z,5.03
2023-03-06T10:11:01.976Z,6.47
2023-03-06T10:16:17.171Z,4.40
2023-03-06T10:21:34.615Z,4.40
2023-03-06T10:26:43.408Z,4.50
2023-03-06T10:31:55.312Z,5.00
2023-03-06T10:37:03.887Z,5.97
2023-03-06T10:42:09.871Z,6.80
2023-03-06T10:47:30.181Z,3.67
2023-03-06T10:52:36.100Z,5.27
2023-03-06T10:57:39.406Z,7.88
2023-03-06T11:02:42.893Z,4.63
2023-03-06T11:07:57.436Z,5.40
2023-03-06T11:13:03.035Z,6.05
2023-03-06T11:18:23.646Z,5.37
2023-03-06T11:23:39.168Z,5.60
2023-03-06T11:28:47.253Z,4.05
2023-03-06T11:33:54.836Z,5.47
2023-03-06T11:38:59.609Z,5.50
2023-03-06T11:44:13.574Z,5.25
2023-03-06T11:49:25.119Z,5.68
2023-03-06T11:54:30.299Z,5.15
2023-03-06T12:00:03.175Z,4.97
2023-03-06T12:05:35.236Z,6.53
2023-03-06T12:10:51.554Z,5.45
2023-03-06T12:16:13.555Z,5.40
2023-03-06T12:21:26.989Z,6.18
2023-03-06T12:26:53.602Z,5.40
2023-03-06T12:32:08.688Z,4.95
2023-03-06T12:37:23.559Z,6.85
2023-03-06T12:43:00.990Z,5.97
2023-03-06T12:48:10.746Z,6.72
2023-03-06T12:53:27.726Z,7.47
2023-03-06T12:58:49.218Z,6.53
2023-03-06T13:04:07.003Z,4.57
2023-03-06T13:09:20.257Z,5.95
2023-03-06T13:14:34.097Z,5.85
2023-03-06T13:19:37.528Z,6.07
2023-03-06T13:24:43.242Z,9.07
2023-03-06T13:30:13.556Z,6.10
2023-03-06T13:35:53.583Z,7.07
2023-03-06T13:41:50.296Z,6.78
2023-03-06T13:47:00.199Z,6.30
2023-03-06T13:52:11.762Z,7.47
2023-03-06T13:57:32.320Z,8.05
2023-03-06T14:02:57.639Z,7.47
2023-03-06T14:08:11.424Z,8.45
2023-03-06T14:13:21.112Z,6.68
2023-03-06T14:18:26.921Z,5.13
2023-03-06T14:23:34.432Z,8.52
2023-03-06T14:28:37.960Z,8.13
2023-03-06T14:33:45.853Z,6.65
2023-03-06T14:38:53.979Z,6.53
2023-03-06T14:44:10.733Z,6.03
2023-03-06T14:49:15.632Z,5.80
2023-03-06T14:54:23.599Z,7.53
2023-03-06T14:59:29.983Z,5.75
2023-03-06T15:04:40.234Z,7.53
2023-03-06T15:09:48.729Z,5.55
2023-03-06T15:14:59.990Z,9.45
2023-03-06T15:20:03.661Z,9.90
2023-03-06T15:25:26.787Z,8.13
2023-03-06T15:30:32.567Z,6.95
2023-03-06T15:35:37.946Z,6.22
2023-03-06T15:40:56.209Z,5.45
2023-03-06T15:46:01.599Z,6.20
2023-03-06T15:51:06.212Z,7.05
2023-03-06T15:56:13.015Z,6.47
2023-03-06T16:01:18.544Z,5.72
2023-03-06T16:06:24.692Z,6.45
2023-03-06T16:11:41.900Z,6.10
2023-03-06T16:16:47.153Z,6.22
2023-03-06T16:21:51.665Z,5.07
2023-03-06T16:26:57.750Z,5.50
2023-03-06T16:32:02.439Z,6.75
2023-03-06T16:37:07.748Z,5.75
2023-03-06T16:42:13.104Z,5.22
2023-03-06T16:47:17.300Z,7.30
2023-03-06T16:52:20.971Z,7.95
2023-03-06T16:57:31.542Z,8.10
2023-03-06T17:02:36.328Z,5.82
2023-03-06T17:07:42.089Z,3.58
2023-03-06T17:12:47.282Z,4.70
2023-03-06T17:17:51.758Z,7.28
2023-03-06T17:22:55.422Z,8.85
2023-03-06T17:28:01.040Z,6.22
2023-03-06T17:33:04.683Z,6.07
2023-03-06T17:38:08.318Z,6.95
2023-03-06T17:43:13.887Z,7.93
2023-03-06T17:48:18.165Z,5.80
2023-03-06T17:53:22.988Z,5.80
2023-03-06T17:58:29.523Z,6.03
2023-03-06T18:03:33.832Z,7.03
2023-03-06T18:08:39.698Z,6.82
2023-03-06T18:13:54.797Z,7.93
2023-03-06T18:19:00.367Z,7.82
2023-03-06T18:24:04.623Z,5.95
2023-03-06T18:29:13.842Z,7.15
2023-03-06T18:34:25.115Z,9.23
2023-03-06T18:39:29.505Z,6.80
2023-03-06T18:44:37.139Z,8.88
2023-03-06T18:49:44.098Z,10.97
2023-03-06T18:54:54.118Z,9.45
2023-03-06T19:00:01.859Z,8.15
2023-03-06T19:05:06.891Z,11.38
2023-03-06T19:10:14.024Z,14.80
2023-03-06T19:15:23.843Z,13.65
2023-03-06T19:20:29.245Z,13.95
2023-03-06T19:25:35.131Z,14.60
2023-03-06T19:30:44.925Z,8.00
2023-03-06T19:35:49.831Z,8.85
2023-03-06T19:40:55.968Z,7.78
2023-03-06T19:46:04.777Z,8.82
2023-03-06T19:51:12.351Z,8.07
2023-03-06T19:56:20.580Z,6.55
2023-03-06T20:01:29.602Z,6.40
2023-03-06T20:06:46.070Z,7.63
2023-03-06T20:11:52.115Z,9.57
2023-03-06T20:17:00.380Z,7.17
2023-03-06T20:22:07.516Z,6.00
2023-03-06T20:27:12.329Z,6.90
2023-03-06T20:32:18.687Z,8.70
2023-03-06T20:37:23.299Z,5.83
2023-03-06T20:42:28.440Z,6.57
2023-03-06T20:47:36.568Z,7.93
2023-03-06T20:52:41.824Z,6.90
2023-03-06T20:57:45.937Z,7.20
2023-03-06T21:02:52.340Z,8.02
2023-03-06T21:07:57.301Z,6.75
2023-03-06T21:13:03.048Z,8.70
2023-03-06T21:18:10.190Z,9.47
2023-03-06T21:23:14.496Z,6.00
2023-03-06T21:28:19.684Z,7.47
2023-03-06T21:33:25.341Z,5.70
2023-03-06T21:38:28.904Z,6.63
2023-03-06T21:43:32.307Z,7.57
2023-03-06T21:48:37.242Z,8.73
2023-03-06T21:53:42.934Z,7.67
2023-03-06T21:58:46.658Z,8.43
2023-03-06T22:03:52.136Z,7.70
2023-03-06T22:08:56.549Z,6.00
2023-03-06T22:14:00.131Z,7.03
2023-03-06T22:19:05.352Z,6.45
2023-03-06T22:24:08.886Z,8.43
2023-03-06T22:29:12.449Z,6.83
2023-03-06T22:34:17.637Z,5.95
2023-03-06T22:39:20.941Z,5.70
2023-03-06T22:44:24.554Z,6.73
2023-03-06T22:49:29.412Z,8.37
2023-03-06T22:54:32.923Z,8.67
2023-03-06T22:59:36.261Z,7.30
2023-03-06T23:04:41.265Z,5.60
2023-03-06T23:09:44.684Z,7.60
2023-03-06T23:15:08.286Z,8.80
2023-03-06T23:20:31.560Z,7.32
2023-03-06T23:25:54.321Z,8.63
2023-03-06T23:30:57.912Z,7.97
2023-03-06T23:36:06.099Z,7.67
2023-03-06T23:41:12.782Z,6.57
2023-03-06T23:46:16.850Z,7.07
2023-03-06T23:51:24.267Z,9.43
2023-03-06T23:56:29.359Z,7.93
